createdAt,value
2017-12-09T00:01:41.625Z,100222.49
2017-12-09T00:04:16.772Z,100221.16
2017-12-09T00:06:51.813Z,100222.66
2017-12-09T00:09:26.652Z,100226.24
2017-12-09T00:12:01.336Z,100227.31
2017-12-09T00:14:36.220Z,100230.34
2017-12-09T00:17:10.940Z,100225.61
2017-12-09T00:19:45.997Z,100218.58
2017-12-09T00:22:32.092Z,100225.47
2017-12-09T00:25:06.344Z,100228.66
2017-12-09T00:27:41.367Z,100217.55
2017-12-09T00:30:16.038Z,100217.28
2017-12-09T00:32:50.745Z,100225.00
2017-12-09T00:35:25.672Z,100223.03
2017-12-09T00:38:00.476Z,100216.63
2017-12-09T00:40:35.240Z,100230.83
2017-12-09T00:43:10.044Z,100226.55
2017-12-09T00:45:44.949Z,100228.41
2017-12-09T00:48:20.011Z,100229.33
2017-12-09T00:50:55.308Z,100229.33
2017-12-09T00:53:29.841Z,100236.19
2017-12-09T00:56:04.745Z,100232.03
2017-12-09T00:58:39.496Z,100230.53
2017-12-09T01:01:13.980Z,100230.63
2017-12-09T01:03:48.543Z,100230.84
2017-12-09T01:06:23.484Z,100237.29
2017-12-09T01:08:58.536Z,100233.00
2017-12-09T01:11:33.669Z,100233.70
2017-12-09T01:14:08.892Z,100235.88
2017-12-09T01:16:55.192Z,100229.05
2017-12-09T01:19:29.701Z,100234.57
2017-12-09T01:22:04.739Z,100234.76
2017-12-09T01:24:39.684Z,100237.81
2017-12-09T01:27:14.540Z,100240.47
2017-12-09T01:29:49.268Z,100237.37
2017-12-09T01:32:24.372Z,100230.87
2017-12-09T01:34:58.896Z,100237.37
2017-12-09T01:37:34.027Z,100236.70
2017-12-09T01:40:08.575Z,100254.08
2017-12-09T01:42:43.408Z,100240.95
2017-12-09T01:45:18.116Z,100238.44
2017-12-09T01:47:52.944Z,100244.40
2017-12-09T01:50:27.312Z,100243.86
2017-12-09T01:53:02.080Z,100239.58
2017-12-09T01:55:37.161Z,100247.63
2017-12-09T01:58:12.448Z,100249.00
2017-12-09T02:00:47.120Z,100229.98
2017-12-09T02:03:21.364Z,100221.48
2017-12-09T02:05:55.848Z,100233.34
2017-12-09T02:08:30.496Z,100230.87
2017-12-09T02:11:05.633Z,100235.68
2017-12-09T02:13:39.833Z,100233.77
2017-12-09T02:16:14.740Z,100244.78
2017-12-09T02:18:48.848Z,100236.55
2017-12-09T02:21:23.644Z,100239.00
2017-12-09T02:23:58.352Z,100242.14
2017-12-09T02:26:33.255Z,100248.06
2017-12-09T02:29:08.308Z,100244.44
2017-12-09T02:31:43.107Z,100238.94
2017-12-09T02:34:17.968Z,100240.01
2017-12-09T02:36:52.601Z,100238.86
2017-12-09T02:39:27.320Z,100242.94
2017-12-09T02:42:01.852Z,100226.87
2017-12-09T02:44:36.295Z,100230.95
2017-12-09T02:47:11.136Z,100225.47
2017-12-09T02:49:46.748Z,100238.44
2017-12-09T02:52:21.568Z,100216.72
2017-12-09T02:54:56.397Z,100222.65
2017-12-09T02:57:31.157Z,100218.27
2017-12-09T03:00:05.737Z,100215.08
2017-12-09T03:02:40.375Z,100226.05
2017-12-09T03:05:14.927Z,100221.94
2017-12-09T03:07:49.632Z,100218.05
2017-12-09T03:10:24.461Z,100220.91
2017-12-09T03:12:59.047Z,100221.43
2017-12-09T03:15:33.869Z,100222.29
2017-12-09T03:18:08.620Z,100213.00
2017-12-09T03:20:44.236Z,100221.40
2017-12-09T03:23:18.507Z,100208.15
2017-12-09T03:25:53.564Z,100194.72
2017-12-09T03:28:28.580Z,100191.53
2017-12-09T03:31:03.620Z,100195.47
2017-12-09T03:33:39.019Z,100178.95
2017-12-09T03:36:13.772Z,100169.75
2017-12-09T03:38:48.000Z,100179.35
2017-12-09T03:41:23.028Z,100174.77
2017-12-09T03:43:57.756Z,100190.84
2017-12-09T03:46:32.441Z,100178.75
2017-12-09T03:49:07.229Z,100182.59
2017-12-09T03:51:41.880Z,100178.81
2017-12-09T03:54:16.509Z,100182.40
2017-12-09T03:56:51.012Z,100165.44
2017-12-09T03:59:25.643Z,100167.06
2017-12-09T04:02:00.248Z,100164.59
2017-12-09T04:04:35.008Z,100165.63
2017-12-09T04:07:09.809Z,100165.00
2017-12-09T04:09:44.403Z,100171.59
2017-12-09T04:12:19.581Z,100173.89
2017-12-09T04:14:54.333Z,100167.66
2017-12-09T04:17:29.148Z,100161.59
2017-12-09T04:20:04.057Z,100156.77
2017-12-09T04:22:39.064Z,100156.58
2017-12-09T04:25:13.568Z,100162.28
2017-12-09T04:27:48.289Z,100162.18
2017-12-09T04:30:22.980Z,100166.15
2017-12-09T04:32:57.824Z,100165.30
2017-12-09T04:35:32.864Z,100162.58
2017-12-09T04:38:07.617Z,100162.88
2017-12-09T04:40:42.624Z,100164.65
2017-12-09T04:43:17.692Z,100158.64
2017-12-09T04:45:52.596Z,100163.29
2017-12-09T04:48:27.309Z,100161.98
2017-12-09T04:51:02.272Z,100162.27
2017-12-09T04:53:36.873Z,100155.37
2017-12-09T04:56:11.412Z,100151.70
2017-12-09T04:58:46.050Z,100149.83
2017-12-09T05:01:20.733Z,100158.05
2017-12-09T05:03:55.504Z,100153.04
2017-12-09T05:06:30.209Z,100136.16
2017-12-09T05:09:04.397Z,100141.39
2017-12-09T05:11:38.540Z,100124.23
2017-12-09T05:14:13.316Z,100148.71
2017-12-09T05:16:48.006Z,100144.25
2017-12-09T05:19:22.777Z,100154.86
2017-12-09T05:21:57.451Z,100145.77
2017-12-09T05:24:32.091Z,100149.94
2017-12-09T05:27:07.036Z,100145.67
2017-12-09T05:29:41.841Z,100144.34
2017-12-09T05:32:16.516Z,100146.31
2017-12-09T05:34:51.005Z,100147.73
2017-12-09T05:37:25.648Z,100147.06
2017-12-09T05:40:00.464Z,100152.00
2017-12-09T05:45:09.008Z,100149.35
2017-12-09T05:47:43.801Z,100157.18
2017-12-09T05:50:18.371Z,100159.44
2017-12-09T05:52:53.153Z,100161.81
2017-12-09T05:55:27.784Z,100163.43
2017-12-09T05:58:02.436Z,100158.03
2017-12-09T06:00:37.071Z,100173.70
2017-12-09T06:03:11.669Z,100182.80
2017-12-09T06:05:46.348Z,100187.45
2017-12-09T06:08:20.992Z,100190.10
2017-12-09T06:10:55.668Z,100191.34
2017-12-09T06:13:30.308Z,100187.61
2017-12-09T06:16:04.804Z,100196.55
2017-12-09T06:18:39.364Z,100187.45
2017-12-09T06:21:13.861Z,100185.94
2017-12-09T06:23:48.753Z,100195.47
2017-12-09T06:26:23.476Z,100194.16
2017-12-09T06:28:58.148Z,100196.55
2017-12-09T06:31:32.840Z,100202.09
2017-12-09T06:34:07.529Z,100203.56
2017-12-09T06:36:42.323Z,100211.43
2017-12-09T06:39:17.153Z,100199.97
2017-12-09T06:41:51.617Z,100204.86
2017-12-09T06:44:26.512Z,100204.28
2017-12-09T06:47:00.563Z,100208.84
2017-12-09T06:49:35.164Z,100221.54
2017-12-09T06:52:09.769Z,100230.34
2017-12-09T06:54:44.624Z,100248.56
2017-12-09T06:57:19.296Z,100253.34
2017-12-09T06:59:53.904Z,100263.59
2017-12-09T07:02:28.933Z,100270.93
2017-12-09T07:05:03.312Z,100286.33
2017-12-09T07:07:38.264Z,100262.66
2017-12-09T07:10:13.115Z,100234.11
2017-12-09T07:12:47.644Z,100242.03
2017-12-09T07:15:21.969Z,100269.67
2017-12-09T07:17:56.995Z,100266.80
2017-12-09T07:20:31.554Z,100280.66
2017-12-09T07:23:06.096Z,100274.19
2017-12-09T07:25:40.804Z,100280.92
2017-12-09T07:28:15.356Z,100284.01
2017-12-09T07:30:50.458Z,100276.14
2017-12-09T07:33:25.172Z,100276.80
2017-12-09T07:35:59.876Z,100266.14
2017-12-09T07:38:34.508Z,100266.20
2017-12-09T07:41:09.284Z,100272.02
2017-12-09T07:43:44.096Z,100259.16
2017-12-09T07:46:18.885Z,100265.17
2017-12-09T07:48:53.541Z,100252.84
2017-12-09T07:51:28.325Z,100255.45
2017-12-09T07:54:02.825Z,100261.11
2017-12-09T07:56:37.496Z,100257.97
2017-12-09T07:59:12.022Z,100249.80
2017-12-09T08:01:46.721Z,100261.91
2017-12-09T08:04:21.152Z,100262.66
2017-12-09T08:06:55.784Z,100267.99
2017-12-09T08:09:30.503Z,100271.13
2017-12-09T08:12:05.184Z,100288.52
2017-12-09T08:14:39.767Z,100288.20
2017-12-09T08:17:14.320Z,100294.25
2017-12-09T08:19:48.945Z,100296.17
2017-12-09T08:22:23.432Z,100297.86
2017-12-09T08:24:58.080Z,100292.94
2017-12-09T08:27:32.776Z,100303.61
2017-12-09T08:30:07.693Z,100315.39
2017-12-09T08:32:42.016Z,100303.62
2017-12-09T08:35:17.235Z,100305.63
2017-12-09T08:37:51.520Z,100320.09
2017-12-09T08:40:26.144Z,100318.32
2017-12-09T08:43:00.676Z,100325.63
2017-12-09T08:45:35.368Z,100318.39
2017-12-09T08:48:10.424Z,100313.08
2017-12-09T08:50:44.980Z,100318.08
2017-12-09T08:53:19.739Z,100328.92
2017-12-09T08:55:54.696Z,100338.96
2017-12-09T08:58:29.224Z,100338.66
2017-12-09T09:01:03.768Z,100340.52
2017-12-09T09:03:38.277Z,100344.67
2017-12-09T09:06:13.003Z,100355.30
2017-12-09T09:08:47.740Z,100359.53
2017-12-09T09:11:22.745Z,100375.91
2017-12-09T09:13:57.197Z,100373.83
2017-12-09T09:16:31.696Z,100370.33
2017-12-09T09:19:06.456Z,100367.31
2017-12-09T09:21:41.291Z,100367.89
2017-12-09T09:24:15.826Z,100361.55
2017-12-09T09:26:50.536Z,100374.47
2017-12-09T09:29:25.073Z,100372.82
2017-12-09T09:31:59.662Z,100374.58
2017-12-09T09:34:34.592Z,100377.44
2017-12-09T09:37:09.012Z,100383.32
2017-12-09T09:39:43.964Z,100387.58
2017-12-09T09:42:18.477Z,100377.79
2017-12-09T09:44:53.332Z,100378.09
2017-12-09T09:47:27.929Z,100383.57
2017-12-09T09:50:02.784Z,100380.43
2017-12-09T09:52:37.956Z,100385.30
2017-12-09T09:55:12.455Z,100383.61
2017-12-09T09:57:47.073Z,100371.33
2017-12-09T10:00:22.256Z,100385.69
2017-12-09T10:02:57.310Z,100373.97
2017-12-09T10:05:31.905Z,100378.94
2017-12-09T10:08:06.604Z,100387.13
2017-12-09T10:10:41.548Z,100405.74
2017-12-09T10:13:15.891Z,100397.55
2017-12-09T10:15:50.692Z,100375.79
2017-12-09T10:18:25.397Z,100372.12
2017-12-09T10:21:00.268Z,100365.42
2017-12-09T10:23:35.426Z,100367.61
2017-12-09T10:26:10.021Z,100383.03
2017-12-09T10:28:44.971Z,100383.13
2017-12-09T10:31:19.444Z,100398.20
2017-12-09T10:33:54.124Z,100404.55
2017-12-09T10:36:28.801Z,100400.97
2017-12-09T10:39:03.240Z,100405.39
2017-12-09T10:41:37.847Z,100407.45
2017-12-09T10:44:12.561Z,100413.47
2017-12-09T10:46:47.312Z,100408.89
2017-12-09T10:49:22.068Z,100417.48
2017-12-09T10:51:56.764Z,100400.41
2017-12-09T10:54:31.473Z,100401.55
2017-12-09T10:57:06.252Z,100408.27
2017-12-09T10:59:40.696Z,100399.10
2017-12-09T11:02:15.509Z,100394.98
2017-12-09T11:04:50.159Z,100384.78
2017-12-09T11:07:25.009Z,100382.38
2017-12-09T11:09:59.593Z,100380.27
2017-12-09T11:12:34.188Z,100381.09
2017-12-09T11:15:09.061Z,100391.53
2017-12-09T11:17:45.125Z,100383.47
2017-12-09T11:20:19.732Z,100380.41
2017-12-09T11:22:54.628Z,100376.75
2017-12-09T11:25:29.259Z,100378.64
2017-12-09T11:28:03.817Z,100388.64
2017-12-09T11:30:38.492Z,100392.19
2017-12-09T11:33:13.720Z,100385.09
2017-12-09T11:35:48.197Z,100392.59
2017-12-09T11:38:23.155Z,100399.00
2017-12-09T11:40:57.853Z,100398.31
2017-12-09T11:43:32.977Z,100392.49
2017-12-09T11:46:07.604Z,100395.89
2017-12-09T11:48:42.608Z,100385.45
2017-12-09T11:51:17.188Z,100387.67
2017-12-09T11:53:52.093Z,100381.50
2017-12-09T11:56:26.644Z,100379.83
2017-12-09T11:59:01.481Z,100383.37
2017-12-09T12:01:36.408Z,100382.83
2017-12-09T12:04:10.961Z,100379.77
2017-12-09T12:06:45.565Z,100382.52
2017-12-09T12:09:20.336Z,100387.55
2017-12-09T12:11:55.097Z,100381.88
2017-12-09T12:14:29.748Z,100385.38
2017-12-09T12:17:04.497Z,100386.84
2017-12-09T12:19:39.284Z,100384.93
2017-12-09T12:22:13.881Z,100378.78
2017-12-09T12:24:48.523Z,100381.64
2017-12-09T12:27:23.227Z,100383.70
2017-12-09T12:29:58.009Z,100386.31
2017-12-09T12:32:32.841Z,100392.20
2017-12-09T12:35:07.544Z,100396.11
2017-12-09T12:37:42.095Z,100392.98
2017-12-09T12:40:17.157Z,100395.09
2017-12-09T12:42:52.058Z,100401.56
2017-12-09T12:45:26.661Z,100392.00
2017-12-09T12:48:01.514Z,100389.55
2017-12-09T12:50:36.333Z,100395.27
2017-12-09T12:53:11.133Z,100394.00
2017-12-09T12:55:45.989Z,100390.96
2017-12-09T12:58:20.549Z,100390.02
2017-12-09T13:00:55.496Z,100389.47
2017-12-09T13:03:30.056Z,100385.06
2017-12-09T13:06:04.840Z,100386.83
2017-12-09T13:08:39.636Z,100385.58
2017-12-09T13:11:14.377Z,100381.66
2017-12-09T13:13:49.239Z,100387.85
2017-12-09T13:16:24.017Z,100395.23
2017-12-09T13:18:58.577Z,100389.96
2017-12-09T13:21:33.628Z,100395.66
2017-12-09T13:24:08.200Z,100395.80
2017-12-09T13:26:42.961Z,100389.27
2017-12-09T13:29:17.785Z,100398.74
2017-12-09T13:31:52.436Z,100396.34
2017-12-09T13:34:27.188Z,100396.39
2017-12-09T13:37:01.945Z,100396.44
2017-12-09T13:39:36.884Z,100389.63
2017-12-09T13:42:11.813Z,100385.08
2017-12-09T13:44:46.465Z,100384.58
2017-12-09T13:47:22.270Z,100390.51
2017-12-09T13:49:56.941Z,100394.06
2017-12-09T13:52:31.681Z,100384.79
2017-12-09T13:55:06.680Z,100395.16
2017-12-09T13:57:41.064Z,100389.47
2017-12-09T14:00:16.169Z,100390.30
2017-12-09T14:02:50.692Z,100380.35
2017-12-09T14:05:25.536Z,100399.84
2017-12-09T14:08:00.615Z,100396.15
2017-12-09T14:10:35.425Z,100397.67
2017-12-09T14:13:10.856Z,100399.73
2017-12-09T14:15:45.801Z,100397.72
2017-12-09T14:18:20.624Z,100397.09
2017-12-09T14:20:55.680Z,100400.20
2017-12-09T14:23:30.968Z,100394.97
2017-12-09T14:26:05.772Z,100390.39
2017-12-09T14:28:40.439Z,100398.97
2017-12-09T14:31:15.276Z,100388.64
2017-12-09T14:33:50.024Z,100390.95
2017-12-09T14:36:24.756Z,100386.72
2017-12-09T14:38:59.605Z,100380.02
2017-12-09T14:41:34.262Z,100375.23
2017-12-09T14:44:09.332Z,100379.23
2017-12-09T14:46:44.368Z,100371.96
2017-12-09T14:49:19.293Z,100365.85
2017-12-09T14:51:54.124Z,100362.98
2017-12-09T14:54:29.084Z,100360.45
2017-12-09T14:57:04.031Z,100358.13
2017-12-09T14:59:38.784Z,100363.17
2017-12-09T15:02:13.564Z,100349.72
2017-12-09T15:04:48.469Z,100346.66
2017-12-09T15:07:23.416Z,100345.25
2017-12-09T15:09:58.669Z,100349.95
2017-12-09T15:12:33.070Z,100350.09
2017-12-09T15:15:08.023Z,100354.42
2017-12-09T15:17:43.156Z,100350.67
2017-12-09T15:20:18.238Z,100350.67
2017-12-09T15:22:53.136Z,100345.55
2017-12-09T15:25:28.298Z,100344.27
2017-12-09T15:28:02.773Z,100350.25
2017-12-09T15:30:37.668Z,100346.45
2017-12-09T15:33:12.441Z,100343.94
2017-12-09T15:35:47.226Z,100338.44
2017-12-09T15:38:21.801Z,100350.94
2017-12-09T15:40:56.500Z,100344.79
2017-12-09T15:43:31.129Z,100343.86
2017-12-09T15:46:05.856Z,100341.01
2017-12-09T15:48:40.376Z,100342.69
2017-12-09T15:51:15.116Z,100347.98
2017-12-09T15:53:49.745Z,100350.17
2017-12-09T15:56:24.812Z,100339.03
2017-12-09T15:58:59.429Z,100344.99
2017-12-09T16:01:34.109Z,100339.18
2017-12-09T16:04:08.761Z,100342.58
2017-12-09T16:06:43.425Z,100342.92
2017-12-09T16:09:18.141Z,100339.72
2017-12-09T16:11:53.043Z,100335.97
2017-12-09T16:14:27.673Z,100334.78
2017-12-09T16:17:02.392Z,100327.06
2017-12-09T16:19:37.331Z,100323.02
2017-12-09T16:22:12.012Z,100331.16
2017-12-09T16:24:46.749Z,100321.40
2017-12-09T16:27:21.532Z,100332.86
2017-12-09T16:29:56.593Z,100335.16
2017-12-09T16:32:31.292Z,100332.76
2017-12-09T16:35:06.024Z,100331.09
2017-12-09T16:37:40.997Z,100337.69
2017-12-09T16:40:15.772Z,100334.28
2017-12-09T16:42:50.517Z,100340.67
2017-12-09T16:45:25.086Z,100343.33
2017-12-09T16:47:59.776Z,100344.31
2017-12-09T16:50:34.564Z,100338.81
2017-12-09T16:53:09.022Z,100342.02
2017-12-09T16:55:43.645Z,100341.04
2017-12-09T16:58:18.132Z,100341.87
2017-12-09T17:00:52.705Z,100347.23
2017-12-09T17:03:27.217Z,100340.03
2017-12-09T17:06:01.936Z,100346.67
2017-12-09T17:08:36.616Z,100346.58
2017-12-09T17:11:11.089Z,100347.67
2017-12-09T17:13:45.720Z,100348.70
2017-12-09T17:16:20.272Z,100344.47
2017-12-09T17:18:55.076Z,100340.12
2017-12-09T17:21:29.752Z,100338.02
2017-12-09T17:24:04.528Z,100341.78
2017-12-09T17:26:39.284Z,100340.80
2017-12-09T17:29:14.593Z,100337.99
2017-12-09T17:31:49.272Z,100331.67
2017-12-09T17:34:23.784Z,100333.35
2017-12-09T17:36:58.465Z,100336.55
2017-12-09T17:39:33.249Z,100345.53
2017-12-09T17:42:08.163Z,100340.37
2017-12-09T17:44:42.781Z,100343.77
2017-12-09T17:47:17.715Z,100342.63
2017-12-09T17:49:52.608Z,100341.63
2017-12-09T17:52:27.895Z,100338.39
2017-12-09T17:55:02.396Z,100338.92
2017-12-09T17:57:37.072Z,100340.10
2017-12-09T18:00:11.384Z,100343.28
2017-12-09T18:02:46.281Z,100345.69
2017-12-09T18:05:21.109Z,100348.16
2017-12-09T18:07:56.056Z,100347.84
2017-12-09T18:10:30.458Z,100343.42
2017-12-09T18:13:05.036Z,100344.31
2017-12-09T18:15:39.541Z,100349.06
2017-12-09T18:18:14.548Z,100344.89
2017-12-09T18:20:49.500Z,100343.20
2017-12-09T18:23:24.318Z,100338.39
2017-12-09T18:25:59.067Z,100338.03
2017-12-09T18:28:33.670Z,100330.55
2017-12-09T18:31:08.318Z,100338.42
2017-12-09T18:33:43.021Z,100337.88
2017-12-09T18:36:17.739Z,100337.73
2017-12-09T18:38:52.452Z,100331.13
2017-12-09T18:41:27.236Z,100323.22
2017-12-09T18:44:02.428Z,100339.52
2017-12-09T18:46:36.868Z,100332.09
2017-12-09T18:49:11.596Z,100337.52
2017-12-09T18:51:46.738Z,100331.65
2017-12-09T18:54:21.086Z,100337.53
2017-12-09T18:56:55.706Z,100332.55
2017-12-09T18:59:30.404Z,100328.20
2017-12-09T19:02:05.133Z,100328.52
2017-12-09T19:04:39.890Z,100324.05
2017-12-09T19:07:14.697Z,100320.58
2017-12-09T19:09:49.441Z,100323.59
2017-12-09T19:12:24.581Z,100318.32
2017-12-09T19:14:59.097Z,100314.59
2017-12-09T19:17:33.624Z,100311.78
2017-12-09T19:20:08.613Z,100318.02
2017-12-09T19:22:42.984Z,100313.70
2017-12-09T19:25:17.541Z,100306.16
2017-12-09T19:27:52.194Z,100305.43
2017-12-09T19:30:26.893Z,100301.80
2017-12-09T19:33:01.649Z,100308.72
2017-12-09T19:35:36.425Z,100312.27
2017-12-09T19:38:11.157Z,100313.77
2017-12-09T19:40:45.883Z,100311.26
2017-12-09T19:43:20.557Z,100310.02
2017-12-09T19:45:55.187Z,100310.30
2017-12-09T19:48:29.888Z,100304.59
2017-12-09T19:51:04.685Z,100296.31
2017-12-09T19:53:39.263Z,100292.62
2017-12-09T19:56:14.120Z,100288.34
2017-12-09T19:58:48.992Z,100277.80
2017-12-09T20:01:23.804Z,100289.13
2017-12-09T20:03:58.961Z,100278.31
2017-12-09T20:06:33.384Z,100282.05
2017-12-09T20:09:08.297Z,100277.09
2017-12-09T20:11:43.219Z,100274.64
2017-12-09T20:14:18.148Z,100265.44
2017-12-09T20:16:53.120Z,100268.94
2017-12-09T20:19:27.709Z,100262.92
2017-12-09T20:22:02.464Z,100264.11
2017-12-09T20:24:37.013Z,100253.96
2017-12-09T20:27:11.816Z,100269.66
2017-12-09T20:29:46.527Z,100268.11
2017-12-09T20:32:21.117Z,100261.45
2017-12-09T20:34:55.740Z,100252.10
2017-12-09T20:37:30.457Z,100259.38
2017-12-09T20:40:05.761Z,100258.59
2017-12-09T20:42:40.210Z,100253.73
2017-12-09T20:45:14.664Z,100251.12
2017-12-09T20:47:48.825Z,100255.84
2017-12-09T20:50:23.496Z,100252.27
2017-12-09T20:52:58.411Z,100246.39
2017-12-09T20:55:32.604Z,100239.64
2017-12-09T20:58:07.437Z,100239.01
2017-12-09T21:00:42.369Z,100248.41
2017-12-09T21:03:17.009Z,100243.73
2017-12-09T21:05:51.825Z,100237.98
2017-12-09T21:08:26.763Z,100238.88
2017-12-09T21:11:01.585Z,100228.98
2017-12-09T21:13:36.153Z,100234.39
2017-12-09T21:16:11.789Z,100235.92
2017-12-09T21:18:46.711Z,100225.87
2017-12-09T21:21:21.712Z,100227.39
2017-12-09T21:23:56.921Z,100221.69
2017-12-09T21:26:31.600Z,100206.98
2017-12-09T21:29:06.532Z,100215.55
2017-12-09T21:31:41.029Z,100209.05
2017-12-09T21:34:15.794Z,100205.55
2017-12-09T21:36:50.705Z,100206.58
2017-12-09T21:39:25.368Z,100206.63
2017-12-09T21:42:00.184Z,100205.64
2017-12-09T21:44:34.812Z,100199.59
2017-12-09T21:47:09.840Z,100190.69
2017-12-09T21:49:44.615Z,100192.86
2017-12-09T21:52:19.176Z,100194.23
2017-12-09T21:54:53.849Z,100199.48
2017-12-09T21:57:28.700Z,100194.58
2017-12-09T22:00:03.242Z,100195.70
2017-12-09T22:02:38.187Z,100191.77
2017-12-09T22:05:13.032Z,100194.09
2017-12-09T22:07:48.097Z,100197.91
2017-12-09T22:10:22.719Z,100185.02
2017-12-09T22:12:57.569Z,100170.45
2017-12-09T22:15:32.188Z,100176.56
2017-12-09T22:18:06.980Z,100181.58
2017-12-09T22:20:42.137Z,100176.52
2017-12-09T22:23:16.565Z,100186.51
2017-12-09T22:25:51.229Z,100181.18
2017-12-09T22:28:25.991Z,100168.84
2017-12-09T22:31:00.716Z,100166.81
2017-12-09T22:33:35.390Z,100173.37
2017-12-09T22:36:10.656Z,100168.20
2017-12-09T22:38:45.256Z,100173.36
2017-12-09T22:41:19.524Z,100170.45
2017-12-09T22:43:54.256Z,100153.19
2017-12-09T22:46:28.792Z,100150.15
2017-12-09T22:49:03.557Z,100142.91
2017-12-09T22:51:38.067Z,100139.45
2017-12-09T22:54:12.854Z,100136.52
2017-12-09T22:56:47.602Z,100129.38
2017-12-09T22:59:22.172Z,100122.30
2017-12-09T23:01:56.750Z,100119.34
2017-12-09T23:04:31.788Z,100118.41
2017-12-09T23:07:06.784Z,100116.79
2017-12-09T23:09:41.433Z,100120.34
2017-12-09T23:12:16.169Z,100115.12
2017-12-09T23:14:50.921Z,100110.05
2017-12-09T23:17:25.644Z,100102.08
2017-12-09T23:20:00.456Z,100108.37
2017-12-09T23:22:35.247Z,100095.74
2017-12-09T23:25:10.009Z,100095.74
2017-12-09T23:27:44.982Z,100092.64
2017-12-09T23:30:19.768Z,100085.91
2017-12-09T23:32:54.496Z,100086.48
2017-12-09T23:35:29.125Z,100080.39
2017-12-09T23:38:03.916Z,100076.11
2017-12-09T23:40:38.448Z,100073.34
2017-12-09T23:43:13.231Z,100065.92
2017-12-09T23:45:47.976Z,100069.27
2017-12-09T23:48:22.701Z,100067.75
2017-12-09T23:50:57.536Z,100060.02
2017-12-09T23:53:32.463Z,100058.64
2017-12-09T23:56:07.073Z,100059.39
2017-12-09T23:58:41.773Z,100042.18
